sensor_id;sensor_type;location;lat;lon;timestamp;P1;durP1;ratioP1;P2;durP2;ratioP2
21386;SDS011;10854;45.922;6.716;2022-12-18T00:00:09;65.43;;;36.13;;
21386;SDS011;10854;45.922;6.716;2022-12-18T00:02:38;70.20;;;39.20;;
21386;SDS011;10854;45.922;6.716;2022-12-18T00:05:07;66.33;;;38.40;;
21386;SDS011;10854;45.922;6.716;2022-12-18T00:07:35;82.97;;;45.50;;
21386;SDS011;10854;45.922;6.716;2022-12-18T00:10:04;70.43;;;40.07;;
21386;SDS011;10854;45.922;6.716;2022-12-18T00:12:33;76.97;;;41.57;;
21386;SDS011;10854;45.922;6.716;2022-12-18T00:15:02;79.20;;;42.00;;
21386;SDS011;10854;45.922;6.716;2022-12-18T00:17:30;59.13;;;36.87;;
21386;SDS011;10854;45.922;6.716;2022-12-18T00:19:59;78.43;;;42.57;;
21386;SDS011;10854;45.922;6.716;2022-12-18T00:22:27;72.00;;;40.30;;
21386;SDS011;10854;45.922;6.716;2022-12-18T00:24:56;94.40;;;52.37;;
21386;SDS011;10854;45.922;6.716;2022-12-18T00:27:24;92.30;;;48.50;;
21386;SDS011;10854;45.922;6.716;2022-12-18T00:29:52;79.77;;;44.87;;
21386;SDS011;10854;45.922;6.716;2022-12-18T00:32:21;61.10;;;36.07;;
21386;SDS011;10854;45.922;6.716;2022-12-18T00:34:49;69.27;;;41.43;;
21386;SDS011;10854;45.922;6.716;2022-12-18T00:37:19;77.27;;;42.17;;
21386;SDS011;10854;45.922;6.716;2022-12-18T00:39:47;76.43;;;41.50;;
21386;SDS011;10854;45.922;6.716;2022-12-18T00:42:18;76.90;;;42.23;;
21386;SDS011;10854;45.922;6.716;2022-12-18T00:45:05;76.07;;;41.93;;
21386;SDS011;10854;45.922;6.716;2022-12-18T00:47:38;73.63;;;41.17;;
21386;SDS011;10854;45.922;6.716;2022-12-18T00:50:07;74.33;;;41.80;;
21386;SDS011;10854;45.922;6.716;2022-12-18T00:52:39;81.67;;;45.40;;
21386;SDS011;10854;45.922;6.716;2022-12-18T00:55:08;99.93;;;50.53;;
21386;SDS011;10854;45.922;6.716;2022-12-18T00:57:37;100.03;;;49.53;;
21386;SDS011;10854;45.922;6.716;2022-12-18T01:00:06;86.33;;;45.73;;
21386;SDS011;10854;45.922;6.716;2022-12-18T01:02:37;80.87;;;43.70;;
21386;SDS011;10854;45.922;6.716;2022-12-18T01:05:06;80.00;;;43.37;;
21386;SDS011;10854;45.922;6.716;2022-12-18T01:07:36;80.97;;;43.03;;
21386;SDS011;10854;45.922;6.716;2022-12-18T01:10:06;79.77;;;44.53;;
21386;SDS011;10854;45.922;6.716;2022-12-18T01:12:37;78.33;;;41.97;;
21386;SDS011;10854;45.922;6.716;2022-12-18T01:15:06;74.87;;;41.77;;
21386;SDS011;10854;45.922;6.716;2022-12-18T01:17:37;89.63;;;46.43;;
21386;SDS011;10854;45.922;6.716;2022-12-18T01:20:08;76.03;;;39.93;;
21386;SDS011;10854;45.922;6.716;2022-12-18T01:22:38;71.90;;;40.13;;
21386;SDS011;10854;45.922;6.716;2022-12-18T01:25:07;77.13;;;41.00;;
21386;SDS011;10854;45.922;6.716;2022-12-18T01:27:35;82.73;;;40.57;;
21386;SDS011;10854;45.922;6.716;2022-12-18T01:30:04;74.30;;;39.60;;
21386;SDS011;10854;45.922;6.716;2022-12-18T01:32:35;75.53;;;39.77;;
21386;SDS011;10854;45.922;6.716;2022-12-18T01:35:03;76.80;;;41.93;;
21386;SDS011;10854;45.922;6.716;2022-12-18T01:37:32;86.37;;;37.20;;
21386;SDS011;10854;45.922;6.716;2022-12-18T01:40:01;80.97;;;35.50;;
21386;SDS011;10854;45.922;6.716;2022-12-18T01:42:29;78.53;;;33.70;;
21386;SDS011;10854;45.922;6.716;2022-12-18T01:47:49;77.27;;;33.50;;
21386;SDS011;10854;45.922;6.716;2022-12-18T01:53:14;76.53;;;31.70;;
21386;SDS011;10854;45.922;6.716;2022-12-18T01:55:47;75.87;;;31.47;;
21386;SDS011;10854;45.922;6.716;2022-12-18T01:58:18;84.63;;;33.23;;
21386;SDS011;10854;45.922;6.716;2022-12-18T02:00:49;83.90;;;33.43;;
21386;SDS011;10854;45.922;6.716;2022-12-18T02:03:18;72.97;;;32.37;;
21386;SDS011;10854;45.922;6.716;2022-12-18T02:05:53;65.13;;;28.67;;
21386;SDS011;10854;45.922;6.716;2022-12-18T02:11:02;57.30;;;27.00;;
21386;SDS011;10854;45.922;6.716;2022-12-18T02:16:18;61.87;;;29.93;;
21386;SDS011;10854;45.922;6.716;2022-12-18T02:18:49;57.23;;;28.37;;
21386;SDS011;10854;45.922;6.716;2022-12-18T02:21:27;56.97;;;25.70;;
21386;SDS011;10854;45.922;6.716;2022-12-18T02:26:45;49.73;;;22.37;;
21386;SDS011;10854;45.922;6.716;2022-12-18T02:29:24;41.23;;;20.37;;
21386;SDS011;10854;45.922;6.716;2022-12-18T02:32:00;35.57;;;18.77;;
21386;SDS011;10854;45.922;6.716;2022-12-18T02:34:32;39.07;;;19.57;;
21386;SDS011;10854;45.922;6.716;2022-12-18T02:37:06;43.00;;;20.13;;
21386;SDS011;10854;45.922;6.716;2022-12-18T02:39:38;45.03;;;21.03;;
21386;SDS011;10854;45.922;6.716;2022-12-18T02:42:11;46.00;;;22.30;;
21386;SDS011;10854;45.922;6.716;2022-12-18T02:44:44;47.10;;;22.33;;
21386;SDS011;10854;45.922;6.716;2022-12-18T02:47:15;46.80;;;20.60;;
21386;SDS011;10854;45.922;6.716;2022-12-18T03:01:15;31.87;;;16.57;;
21386;SDS011;10854;45.922;6.716;2022-12-18T03:06:40;32.20;;;15.27;;
21386;SDS011;10854;45.922;6.716;2022-12-18T03:09:15;28.23;;;14.90;;
21386;SDS011;10854;45.922;6.716;2022-12-18T03:11:53;26.87;;;14.40;;
21386;SDS011;10854;45.922;6.716;2022-12-18T03:14:44;36.60;;;19.00;;
21386;SDS011;10854;45.922;6.716;2022-12-18T03:17:17;44.73;;;21.50;;
21386;SDS011;10854;45.922;6.716;2022-12-18T03:19:48;40.83;;;21.07;;
21386;SDS011;10854;45.922;6.716;2022-12-18T03:22:19;46.77;;;21.67;;
21386;SDS011;10854;45.922;6.716;2022-12-18T03:24:49;52.20;;;22.60;;
21386;SDS011;10854;45.922;6.716;2022-12-18T03:27:19;50.27;;;21.63;;
21386;SDS011;10854;45.922;6.716;2022-12-18T03:30:04;59.83;;;26.60;;
21386;SDS011;10854;45.922;6.716;2022-12-18T03:32:39;157.97;;;40.83;;
21386;SDS011;10854;45.922;6.716;2022-12-18T03:35:08;76.37;;;29.30;;
21386;SDS011;10854;45.922;6.716;2022-12-18T03:37:41;64.33;;;29.80;;
21386;SDS011;10854;45.922;6.716;2022-12-18T03:40:09;65.50;;;28.43;;
21386;SDS011;10854;45.922;6.716;2022-12-18T03:45:41;65.10;;;28.73;;
21386;SDS011;10854;45.922;6.716;2022-12-18T03:48:16;214.57;;;37.93;;
21386;SDS011;10854;45.922;6.716;2022-12-18T03:50:55;186.40;;;41.77;;
21386;SDS011;10854;45.922;6.716;2022-12-18T03:53:35;315.27;;;45.23;;
21386;SDS011;10854;45.922;6.716;2022-12-18T03:56:09;180.60;;;40.03;;
21386;SDS011;10854;45.922;6.716;2022-12-18T03:58:40;249.43;;;42.10;;
21386;SDS011;10854;45.922;6.716;2022-12-18T04:01:12;305.17;;;45.80;;
21386;SDS011;10854;45.922;6.716;2022-12-18T04:03:43;661.67;;;71.93;;
21386;SDS011;10854;45.922;6.716;2022-12-18T04:06:14;328.53;;;46.97;;
21386;SDS011;10854;45.922;6.716;2022-12-18T04:08:44;312.30;;;48.47;;
21386;SDS011;10854;45.922;6.716;2022-12-18T04:11:14;286.57;;;45.60;;
21386;SDS011;10854;45.922;6.716;2022-12-18T04:13:43;297.77;;;49.20;;
21386;SDS011;10854;45.922;6.716;2022-12-18T04:16:13;278.20;;;45.80;;
21386;SDS011;10854;45.922;6.716;2022-12-18T04:18:41;251.73;;;42.47;;
21386;SDS011;10854;45.922;6.716;2022-12-18T04:21:10;260.93;;;43.40;;
21386;SDS011;10854;45.922;6.716;2022-12-18T04:23:38;342.10;;;57.03;;
21386;SDS011;10854;45.922;6.716;2022-12-18T04:26:07;420.87;;;48.47;;
21386;SDS011;10854;45.922;6.716;2022-12-18T04:28:35;361.80;;;40.40;;
21386;SDS011;10854;45.922;6.716;2022-12-18T04:31:04;262.83;;;35.43;;
21386;SDS011;10854;45.922;6.716;2022-12-18T04:33:32;287.03;;;39.60;;
21386;SDS011;10854;45.922;6.716;2022-12-18T04:36:01;289.13;;;43.17;;
21386;SDS011;10854;45.922;6.716;2022-12-18T04:38:29;123.93;;;31.77;;
21386;SDS011;10854;45.922;6.716;2022-12-18T04:40:58;221.23;;;38.53;;
21386;SDS011;10854;45.922;6.716;2022-12-18T04:43:29;219.63;;;45.20;;
21386;SDS011;10854;45.922;6.716;2022-12-18T04:46:01;131.07;;;40.07;;
21386;SDS011;10854;45.922;6.716;2022-12-18T04:48:34;168.13;;;45.47;;
21386;SDS011;10854;45.922;6.716;2022-12-18T04:51:03;89.03;;;33.37;;
21386;SDS011;10854;45.922;6.716;2022-12-18T04:53:33;127.10;;;39.10;;
21386;SDS011;10854;45.922;6.716;2022-12-18T04:56:02;69.70;;;31.70;;
21386;SDS011;10854;45.922;6.716;2022-12-18T04:58:31;62.47;;;28.40;;
21386;SDS011;10854;45.922;6.716;2022-12-18T05:00:59;57.33;;;27.93;;
21386;SDS011;10854;45.922;6.716;2022-12-18T05:03:28;62.60;;;29.17;;
21386;SDS011;10854;45.922;6.716;2022-12-18T05:05:57;60.83;;;28.87;;
21386;SDS011;10854;45.922;6.716;2022-12-18T05:08:25;65.83;;;31.97;;
21386;SDS011;10854;45.922;6.716;2022-12-18T05:11:01;83.20;;;38.17;;
21386;SDS011;10854;45.922;6.716;2022-12-18T05:13:31;66.07;;;33.87;;
21386;SDS011;10854;45.922;6.716;2022-12-18T05:16:01;62.60;;;28.47;;
21386;SDS011;10854;45.922;6.716;2022-12-18T05:18:30;55.17;;;27.63;;
21386;SDS011;10854;45.922;6.716;2022-12-18T05:20:59;72.63;;;36.57;;
21386;SDS011;10854;45.922;6.716;2022-12-18T05:23:27;64.33;;;30.30;;
21386;SDS011;10854;45.922;6.716;2022-12-18T05:25:57;62.73;;;30.73;;
21386;SDS011;10854;45.922;6.716;2022-12-18T05:28:28;132.63;;;58.23;;
21386;SDS011;10854;45.922;6.716;2022-12-18T05:30:59;95.27;;;44.27;;
21386;SDS011;10854;45.922;6.716;2022-12-18T05:33:30;127.10;;;68.33;;
21386;SDS011;10854;45.922;6.716;2022-12-18T05:36:03;90.87;;;42.50;;
21386;SDS011;10854;45.922;6.716;2022-12-18T05:38:34;99.10;;;47.37;;
21386;SDS011;10854;45.922;6.716;2022-12-18T05:41:04;80.63;;;37.60;;
21386;SDS011;10854;45.922;6.716;2022-12-18T05:43:34;77.37;;;35.17;;
21386;SDS011;10854;45.922;6.716;2022-12-18T05:46:05;71.57;;;33.03;;
21386;SDS011;10854;45.922;6.716;2022-12-18T05:48:40;72.33;;;35.37;;
21386;SDS011;10854;45.922;6.716;2022-12-18T05:51:11;60.87;;;30.57;;
21386;SDS011;10854;45.922;6.716;2022-12-18T05:53:42;68.83;;;32.30;;
21386;SDS011;10854;45.922;6.716;2022-12-18T05:56:13;55.50;;;30.67;;
21386;SDS011;10854;45.922;6.716;2022-12-18T05:58:45;62.37;;;30.10;;
21386;SDS011;10854;45.922;6.716;2022-12-18T06:03:44;62.77;;;31.07;;
21386;SDS011;10854;45.922;6.716;2022-12-18T06:06:13;62.13;;;29.20;;
21386;SDS011;10854;45.922;6.716;2022-12-18T06:08:46;59.33;;;29.67;;
21386;SDS011;10854;45.922;6.716;2022-12-18T06:11:16;74.97;;;35.13;;
21386;SDS011;10854;45.922;6.716;2022-12-18T06:13:48;74.40;;;36.77;;
21386;SDS011;10854;45.922;6.716;2022-12-18T06:16:22;69.53;;;36.47;;
21386;SDS011;10854;45.922;6.716;2022-12-18T06:18:50;67.73;;;35.70;;
21386;SDS011;10854;45.922;6.716;2022-12-18T06:21:19;63.80;;;33.53;;
21386;SDS011;10854;45.922;6.716;2022-12-18T06:23:47;67.83;;;34.23;;
21386;SDS011;10854;45.922;6.716;2022-12-18T06:26:16;63.80;;;31.83;;
21386;SDS011;10854;45.922;6.716;2022-12-18T06:28:46;65.83;;;32.47;;
21386;SDS011;10854;45.922;6.716;2022-12-18T06:31:14;61.57;;;31.40;;
21386;SDS011;10854;45.922;6.716;2022-12-18T06:33:43;63.57;;;31.50;;
21386;SDS011;10854;45.922;6.716;2022-12-18T06:36:12;65.70;;;32.47;;
21386;SDS011;10854;45.922;6.716;2022-12-18T06:38:41;111.90;;;49.27;;
21386;SDS011;10854;45.922;6.716;2022-12-18T06:41:15;179.60;;;77.97;;
21386;SDS011;10854;45.922;6.716;2022-12-18T06:43:45;53.33;;;26.80;;
21386;SDS011;10854;45.922;6.716;2022-12-18T06:46:14;50.57;;;27.30;;
21386;SDS011;10854;45.922;6.716;2022-12-18T06:48:42;60.50;;;29.73;;
21386;SDS011;10854;45.922;6.716;2022-12-18T06:51:15;68.30;;;35.30;;
21386;SDS011;10854;45.922;6.716;2022-12-18T06:53:45;260.00;;;123.20;;
21386;SDS011;10854;45.922;6.716;2022-12-18T06:56:13;77.60;;;37.03;;
21386;SDS011;10854;45.922;6.716;2022-12-18T06:58:42;77.73;;;34.67;;
21386;SDS011;10854;45.922;6.716;2022-12-18T07:01:11;79.20;;;39.03;;
21386;SDS011;10854;45.922;6.716;2022-12-18T07:03:41;75.87;;;36.33;;
21386;SDS011;10854;45.922;6.716;2022-12-18T07:06:15;79.47;;;37.97;;
21386;SDS011;10854;45.922;6.716;2022-12-18T07:08:46;76.17;;;38.00;;
21386;SDS011;10854;45.922;6.716;2022-12-18T07:11:15;95.97;;;47.23;;
21386;SDS011;10854;45.922;6.716;2022-12-18T07:13:44;269.67;;;132.97;;
21386;SDS011;10854;45.922;6.716;2022-12-18T07:16:14;69.53;;;35.60;;
21386;SDS011;10854;45.922;6.716;2022-12-18T07:18:50;64.30;;;31.63;;
21386;SDS011;10854;45.922;6.716;2022-12-18T07:21:19;65.07;;;32.43;;
21386;SDS011;10854;45.922;6.716;2022-12-18T07:23:48;73.93;;;35.63;;
21386;SDS011;10854;45.922;6.716;2022-12-18T07:26:17;74.73;;;35.83;;
21386;SDS011;10854;45.922;6.716;2022-12-18T07:28:47;70.43;;;34.03;;
21386;SDS011;10854;45.922;6.716;2022-12-18T07:31:19;58.90;;;30.07;;
21386;SDS011;10854;45.922;6.716;2022-12-18T07:33:49;59.37;;;30.27;;
21386;SDS011;10854;45.922;6.716;2022-12-18T07:36:24;57.07;;;30.97;;
21386;SDS011;10854;45.922;6.716;2022-12-18T07:38:52;57.67;;;30.67;;
21386;SDS011;10854;45.922;6.716;2022-12-18T07:41:21;58.40;;;30.47;;
21386;SDS011;10854;45.922;6.716;2022-12-18T07:43:50;54.40;;;29.07;;
21386;SDS011;10854;45.922;6.716;2022-12-18T07:46:18;54.73;;;29.27;;
21386;SDS011;10854;45.922;6.716;2022-12-18T07:48:47;49.50;;;27.97;;
21386;SDS011;10854;45.922;6.716;2022-12-18T07:51:16;50.63;;;28.83;;
21386;SDS011;10854;45.922;6.716;2022-12-18T07:53:45;56.07;;;31.87;;
21386;SDS011;10854;45.922;6.716;2022-12-18T07:56:14;56.70;;;29.93;;
21386;SDS011;10854;45.922;6.716;2022-12-18T07:58:58;173.83;;;80.40;;
21386;SDS011;10854;45.922;6.716;2022-12-18T08:01:35;70.80;;;40.23;;
21386;SDS011;10854;45.922;6.716;2022-12-18T08:04:04;55.87;;;32.30;;
21386;SDS011;10854;45.922;6.716;2022-12-18T08:06:32;55.20;;;33.00;;
21386;SDS011;10854;45.922;6.716;2022-12-18T08:09:01;54.67;;;32.00;;
21386;SDS011;10854;45.922;6.716;2022-12-18T08:11:30;57.30;;;34.20;;
21386;SDS011;10854;45.922;6.716;2022-12-18T08:13:58;55.77;;;33.47;;
21386;SDS011;10854;45.922;6.716;2022-12-18T08:16:27;57.27;;;32.17;;
21386;SDS011;10854;45.922;6.716;2022-12-18T08:18:55;54.57;;;32.50;;
21386;SDS011;10854;45.922;6.716;2022-12-18T08:21:25;54.13;;;31.70;;
21386;SDS011;10854;45.922;6.716;2022-12-18T08:23:56;55.90;;;31.07;;
21386;SDS011;10854;45.922;6.716;2022-12-18T08:26:27;59.87;;;32.93;;
21386;SDS011;10854;45.922;6.716;2022-12-18T08:28:57;58.77;;;33.97;;
21386;SDS011;10854;45.922;6.716;2022-12-18T08:31:27;69.33;;;40.00;;
21386;SDS011;10854;45.922;6.716;2022-12-18T08:33:57;64.67;;;37.93;;
21386;SDS011;10854;45.922;6.716;2022-12-18T08:36:26;49.60;;;30.73;;
21386;SDS011;10854;45.922;6.716;2022-12-18T08:38:54;59.57;;;35.60;;
21386;SDS011;10854;45.922;6.716;2022-12-18T08:41:23;68.77;;;38.13;;
21386;SDS011;10854;45.922;6.716;2022-12-18T08:43:52;63.47;;;38.50;;
21386;SDS011;10854;45.922;6.716;2022-12-18T08:46:40;60.93;;;37.33;;
21386;SDS011;10854;45.922;6.716;2022-12-18T08:49:10;57.73;;;35.47;;
21386;SDS011;10854;45.922;6.716;2022-12-18T08:51:39;64.63;;;35.73;;
21386;SDS011;10854;45.922;6.716;2022-12-18T08:54:10;61.97;;;37.20;;
21386;SDS011;10854;45.922;6.716;2022-12-18T08:56:40;93.57;;;50.90;;
21386;SDS011;10854;45.922;6.716;2022-12-18T08:59:08;92.93;;;48.60;;
21386;SDS011;10854;45.922;6.716;2022-12-18T09:01:39;96.37;;;52.40;;
21386;SDS011;10854;45.922;6.716;2022-12-18T09:04:08;98.40;;;54.80;;
21386;SDS011;10854;45.922;6.716;2022-12-18T09:06:38;106.93;;;55.70;;
21386;SDS011;10854;45.922;6.716;2022-12-18T09:09:07;124.93;;;59.00;;
21386;SDS011;10854;45.922;6.716;2022-12-18T09:11:37;127.10;;;59.23;;
21386;SDS011;10854;45.922;6.716;2022-12-18T09:14:06;132.37;;;61.17;;
21386;SDS011;10854;45.922;6.716;2022-12-18T09:16:35;157.10;;;70.70;;
21386;SDS011;10854;45.922;6.716;2022-12-18T09:19:03;120.50;;;59.83;;
21386;SDS011;10854;45.922;6.716;2022-12-18T09:21:33;111.57;;;56.23;;
21386;SDS011;10854;45.922;6.716;2022-12-18T09:24:11;143.10;;;76.43;;
21386;SDS011;10854;45.922;6.716;2022-12-18T09:26:41;163.67;;;91.00;;
21386;SDS011;10854;45.922;6.716;2022-12-18T09:29:10;232.47;;;111.17;;
21386;SDS011;10854;45.922;6.716;2022-12-18T09:31:38;203.63;;;107.27;;
21386;SDS011;10854;45.922;6.716;2022-12-18T09:34:08;165.10;;;103.23;;
21386;SDS011;10854;45.922;6.716;2022-12-18T09:36:36;166.87;;;102.90;;
21386;SDS011;10854;45.922;6.716;2022-12-18T09:39:05;153.23;;;95.87;;
21386;SDS011;10854;45.922;6.716;2022-12-18T09:44:31;95.30;;;60.77;;
21386;SDS011;10854;45.922;6.716;2022-12-18T09:47:15;79.97;;;50.30;;
21386;SDS011;10854;45.922;6.716;2022-12-18T09:49:57;66.30;;;42.07;;
21386;SDS011;10854;45.922;6.716;2022-12-18T09:52:30;55.00;;;35.53;;
21386;SDS011;10854;45.922;6.716;2022-12-18T09:55:08;85.20;;;50.20;;
21386;SDS011;10854;45.922;6.716;2022-12-18T09:57:59;104.73;;;61.80;;
21386;SDS011;10854;45.922;6.716;2022-12-18T10:00:32;85.60;;;54.53;;
21386;SDS011;10854;45.922;6.716;2022-12-18T10:03:02;63.97;;;40.37;;
21386;SDS011;10854;45.922;6.716;2022-12-18T10:14:17;49.27;;;32.80;;
21386;SDS011;10854;45.922;6.716;2022-12-18T10:19:39;45.53;;;31.17;;
21386;SDS011;10854;45.922;6.716;2022-12-18T10:28:12;36.27;;;24.87;;
21386;SDS011;10854;45.922;6.716;2022-12-18T10:30:42;32.87;;;24.43;;
21386;SDS011;10854;45.922;6.716;2022-12-18T10:33:12;35.53;;;24.93;;
21386;SDS011;10854;45.922;6.716;2022-12-18T10:35:44;30.27;;;20.80;;
21386;SDS011;10854;45.922;6.716;2022-12-18T10:41:00;21.30;;;15.33;;
21386;SDS011;10854;45.922;6.716;2022-12-18T10:43:50;19.27;;;14.73;;
21386;SDS011;10854;45.922;6.716;2022-12-18T10:46:39;20.13;;;14.70;;
21386;SDS011;10854;45.922;6.716;2022-12-18T10:49:18;19.23;;;14.50;;
21386;SDS011;10854;45.922;6.716;2022-12-18T10:52:11;22.17;;;16.13;;
21386;SDS011;10854;45.922;6.716;2022-12-18T10:54:50;25.30;;;16.73;;
21386;SDS011;10854;45.922;6.716;2022-12-18T11:00:01;25.23;;;17.57;;
21386;SDS011;10854;45.922;6.716;2022-12-18T11:02:48;24.80;;;18.17;;
21386;SDS011;10854;45.922;6.716;2022-12-18T11:05:30;25.73;;;18.60;;
21386;SDS011;10854;45.922;6.716;2022-12-18T11:08:01;23.53;;;17.97;;
21386;SDS011;10854;45.922;6.716;2022-12-18T11:10:36;23.27;;;17.17;;
21386;SDS011;10854;45.922;6.716;2022-12-18T11:13:18;19.97;;;14.53;;
21386;SDS011;10854;45.922;6.716;2022-12-18T11:15:49;19.40;;;13.83;;
21386;SDS011;10854;45.922;6.716;2022-12-18T11:18:22;22.03;;;15.57;;
21386;SDS011;10854;45.922;6.716;2022-12-18T11:21:05;17.63;;;13.10;;
21386;SDS011;10854;45.922;6.716;2022-12-18T11:23:36;17.03;;;12.87;;
21386;SDS011;10854;45.922;6.716;2022-12-18T11:26:12;17.20;;;13.40;;
21386;SDS011;10854;45.922;6.716;2022-12-18T11:29:27;19.30;;;13.57;;
21386;SDS011;10854;45.922;6.716;2022-12-18T11:31:37;17.73;;;13.27;;
21386;SDS011;10854;45.922;6.716;2022-12-18T11:34:13;19.83;;;14.70;;
21386;SDS011;10854;45.922;6.716;2022-12-18T11:36:55;18.63;;;14.30;;
21386;SDS011;10854;45.922;6.716;2022-12-18T11:42:52;18.53;;;14.13;;
21386;SDS011;10854;45.922;6.716;2022-12-18T11:45:34;17.87;;;13.07;;
21386;SDS011;10854;45.922;6.716;2022-12-18T11:48:14;18.20;;;13.40;;
21386;SDS011;10854;45.922;6.716;2022-12-18T11:51:13;15.93;;;12.53;;
21386;SDS011;10854;45.922;6.716;2022-12-18T11:53:51;15.10;;;11.83;;
21386;SDS011;10854;45.922;6.716;2022-12-18T11:56:34;14.57;;;11.23;;
21386;SDS011;10854;45.922;6.716;2022-12-18T11:59:08;13.50;;;11.53;;
21386;SDS011;10854;45.922;6.716;2022-12-18T12:04:26;14.53;;;11.33;;
21386;SDS011;10854;45.922;6.716;2022-12-18T12:18:37;12.73;;;9.53;;
21386;SDS011;10854;45.922;6.716;2022-12-18T12:21:21;11.93;;;9.87;;
21386;SDS011;10854;45.922;6.716;2022-12-18T12:24:21;11.80;;;9.30;;
21386;SDS011;10854;45.922;6.716;2022-12-18T12:30:00;12.63;;;9.60;;
21386;SDS011;10854;45.922;6.716;2022-12-18T12:38:20;12.17;;;9.90;;
21386;SDS011;10854;45.922;6.716;2022-12-18T12:40:56;11.17;;;9.57;;
21386;SDS011;10854;45.922;6.716;2022-12-18T12:43:55;11.10;;;9.07;;
21386;SDS011;10854;45.922;6.716;2022-12-18T12:46:26;12.73;;;8.80;;
21386;SDS011;10854;45.922;6.716;2022-12-18T12:48:56;13.00;;;9.23;;
21386;SDS011;10854;45.922;6.716;2022-12-18T12:51:34;12.20;;;9.07;;
21386;SDS011;10854;45.922;6.716;2022-12-18T12:54:06;12.73;;;9.80;;
21386;SDS011;10854;45.922;6.716;2022-12-18T12:59:32;11.30;;;9.27;;
21386;SDS011;10854;45.922;6.716;2022-12-18T13:04:53;10.40;;;8.70;;
21386;SDS011;10854;45.922;6.716;2022-12-18T13:07:32;12.20;;;9.03;;
21386;SDS011;10854;45.922;6.716;2022-12-18T13:10:14;11.97;;;8.97;;
21386;SDS011;10854;45.922;6.716;2022-12-18T13:12:56;13.33;;;9.50;;
21386;SDS011;10854;45.922;6.716;2022-12-18T13:20:37;14.60;;;9.40;;
21386;SDS011;10854;45.922;6.716;2022-12-18T13:26:28;13.37;;;10.20;;
21386;SDS011;10854;45.922;6.716;2022-12-18T13:36:53;12.93;;;10.00;;
21386;SDS011;10854;45.922;6.716;2022-12-18T13:39:24;16.03;;;10.63;;
21386;SDS011;10854;45.922;6.716;2022-12-18T13:44:41;12.10;;;7.40;;
21386;SDS011;10854;45.922;6.716;2022-12-18T13:50:11;12.03;;;9.63;;
21386;SDS011;10854;45.922;6.716;2022-12-18T13:52:58;9.33;;;7.80;;
21386;SDS011;10854;45.922;6.716;2022-12-18T13:55:27;11.93;;;9.73;;
21386;SDS011;10854;45.922;6.716;2022-12-18T13:58:04;10.43;;;8.10;;
21386;SDS011;10854;45.922;6.716;2022-12-18T14:00:36;11.73;;;8.17;;
21386;SDS011;10854;45.922;6.716;2022-12-18T14:03:23;10.23;;;8.03;;
21386;SDS011;10854;45.922;6.716;2022-12-18T14:05:59;11.37;;;7.70;;
21386;SDS011;10854;45.922;6.716;2022-12-18T14:08:38;10.57;;;7.33;;
21386;SDS011;10854;45.922;6.716;2022-12-18T14:11:22;10.03;;;8.13;;
21386;SDS011;10854;45.922;6.716;2022-12-18T14:13:50;10.03;;;7.70;;
21386;SDS011;10854;45.922;6.716;2022-12-18T14:16:20;11.10;;;7.80;;
21386;SDS011;10854;45.922;6.716;2022-12-18T14:18:54;9.30;;;7.60;;
21386;SDS011;10854;45.922;6.716;2022-12-18T14:21:26;9.80;;;7.67;;
21386;SDS011;10854;45.922;6.716;2022-12-18T14:24:04;11.43;;;8.93;;
21386;SDS011;10854;45.922;6.716;2022-12-18T14:26:36;10.70;;;8.40;;
21386;SDS011;10854;45.922;6.716;2022-12-18T14:29:18;9.27;;;6.97;;
21386;SDS011;10854;45.922;6.716;2022-12-18T14:34:43;12.50;;;8.03;;
21386;SDS011;10854;45.922;6.716;2022-12-18T14:37:23;11.33;;;7.47;;
21386;SDS011;10854;45.922;6.716;2022-12-18T14:39:57;12.73;;;9.07;;
21386;SDS011;10854;45.922;6.716;2022-12-18T14:42:30;12.93;;;8.67;;
21386;SDS011;10854;45.922;6.716;2022-12-18T14:50:39;13.50;;;9.37;;
21386;SDS011;10854;45.922;6.716;2022-12-18T14:53:21;12.50;;;8.37;;
21386;SDS011;10854;45.922;6.716;2022-12-18T14:55:56;9.87;;;7.60;;
21386;SDS011;10854;45.922;6.716;2022-12-18T14:58:25;10.80;;;7.10;;
21386;SDS011;10854;45.922;6.716;2022-12-18T15:00:54;9.53;;;7.30;;
21386;SDS011;10854;45.922;6.716;2022-12-18T15:03:22;9.73;;;7.53;;
21386;SDS011;10854;45.922;6.716;2022-12-18T15:05:51;11.37;;;7.63;;
21386;SDS011;10854;45.922;6.716;2022-12-18T15:08:31;11.07;;;8.00;;
21386;SDS011;10854;45.922;6.716;2022-12-18T15:11:03;12.93;;;7.43;;
21386;SDS011;10854;45.922;6.716;2022-12-18T15:13:52;15.30;;;10.10;;
21386;SDS011;10854;45.922;6.716;2022-12-18T15:16:20;14.93;;;10.00;;
21386;SDS011;10854;45.922;6.716;2022-12-18T15:18:49;19.33;;;12.03;;
21386;SDS011;10854;45.922;6.716;2022-12-18T15:21:18;17.77;;;12.63;;
21386;SDS011;10854;45.922;6.716;2022-12-18T15:23:51;16.50;;;11.60;;
21386;SDS011;10854;45.922;6.716;2022-12-18T15:26:21;17.10;;;13.23;;
21386;SDS011;10854;45.922;6.716;2022-12-18T15:34:00;12.50;;;7.97;;
21386;SDS011;10854;45.922;6.716;2022-12-18T15:36:35;13.40;;;8.90;;
21386;SDS011;10854;45.922;6.716;2022-12-18T15:39:04;19.97;;;13.67;;
21386;SDS011;10854;45.922;6.716;2022-12-18T15:41:34;43.50;;;28.60;;
21386;SDS011;10854;45.922;6.716;2022-12-18T15:44:16;25.20;;;15.87;;
21386;SDS011;10854;45.922;6.716;2022-12-18T15:46:50;23.00;;;16.07;;
21386;SDS011;10854;45.922;6.716;2022-12-18T15:49:19;26.13;;;16.60;;
21386;SDS011;10854;45.922;6.716;2022-12-18T15:51:49;22.53;;;15.73;;
21386;SDS011;10854;45.922;6.716;2022-12-18T15:54:21;21.27;;;13.70;;
21386;SDS011;10854;45.922;6.716;2022-12-18T15:57:10;25.10;;;14.67;;
21386;SDS011;10854;45.922;6.716;2022-12-18T15:59:53;21.40;;;13.97;;
21386;SDS011;10854;45.922;6.716;2022-12-18T16:02:26;25.40;;;14.93;;
21386;SDS011;10854;45.922;6.716;2022-12-18T16:04:56;27.50;;;17.07;;
21386;SDS011;10854;45.922;6.716;2022-12-18T16:07:24;27.83;;;16.43;;
21386;SDS011;10854;45.922;6.716;2022-12-18T16:09:54;25.13;;;16.70;;
21386;SDS011;10854;45.922;6.716;2022-12-18T16:12:24;26.87;;;17.63;;
21386;SDS011;10854;45.922;6.716;2022-12-18T16:14:53;34.50;;;21.87;;
21386;SDS011;10854;45.922;6.716;2022-12-18T16:17:21;34.13;;;22.00;;
21386;SDS011;10854;45.922;6.716;2022-12-18T16:19:49;37.77;;;23.63;;
21386;SDS011;10854;45.922;6.716;2022-12-18T16:22:22;30.07;;;19.00;;
21386;SDS011;10854;45.922;6.716;2022-12-18T16:24:52;33.57;;;21.97;;
21386;SDS011;10854;45.922;6.716;2022-12-18T16:27:22;28.80;;;18.73;;
21386;SDS011;10854;45.922;6.716;2022-12-18T16:29:51;29.13;;;19.70;;
21386;SDS011;10854;45.922;6.716;2022-12-18T16:32:20;34.00;;;20.63;;
21386;SDS011;10854;45.922;6.716;2022-12-18T16:34:49;38.03;;;22.57;;
21386;SDS011;10854;45.922;6.716;2022-12-18T16:37:18;38.07;;;24.23;;
21386;SDS011;10854;45.922;6.716;2022-12-18T16:39:46;53.00;;;31.87;;
21386;SDS011;10854;45.922;6.716;2022-12-18T16:42:16;57.40;;;30.37;;
21386;SDS011;10854;45.922;6.716;2022-12-18T16:44:47;60.60;;;31.30;;
21386;SDS011;10854;45.922;6.716;2022-12-18T16:47:17;59.03;;;30.40;;
21386;SDS011;10854;45.922;6.716;2022-12-18T16:49:46;54.87;;;30.63;;
21386;SDS011;10854;45.922;6.716;2022-12-18T16:52:18;61.53;;;33.20;;
21386;SDS011;10854;45.922;6.716;2022-12-18T16:54:47;102.20;;;43.90;;
21386;SDS011;10854;45.922;6.716;2022-12-18T16:57:16;70.27;;;34.53;;